MyWebLog Booking Liste

 

Nyhetsmelding

Kopirett © 2014 Værnes Flyklubb. Alle rettigheter reservert.
Joomla! er fri programvare utgitt under GNU/GPL License.
 

METAR

ENVA 230520Z 10005KT 9999 VCSH FEW050 SCT082 19/15 Q1028 NOSIG RMK WIND 670FT 25003KT

TAF ENVA 2303/2403 VRB05KT CAVOK BECMG 2306/2309 27010KT PROB30 TEMPO 2312/2318 SCT040CB